createdAt,value
2019-05-17T00:01:46.938Z,12.20
2019-05-17T00:04:16.612Z,12.20
2019-05-17T00:06:47.462Z,12.10
2019-05-17T00:09:17.414Z,12.00
2019-05-17T00:11:47.213Z,12.10
2019-05-17T00:14:16.757Z,12.10
2019-05-17T00:16:46.803Z,12.10
2019-05-17T00:19:16.906Z,12.20
2019-05-17T00:21:47.312Z,12.20
2019-05-17T00:24:15.098Z,12.20
2019-05-17T00:26:43.109Z,12.20
2019-05-17T00:29:11.207Z,12.20
2019-05-17T00:31:39.402Z,12.20
2019-05-17T00:34:07.499Z,12.20
2019-05-17T00:36:37.529Z,12.20
2019-05-17T00:39:07.482Z,12.20
2019-05-17T00:41:37.543Z,12.20
2019-05-17T00:44:06.299Z,12.10
2019-05-17T00:46:37.254Z,12.10
2019-05-17T00:49:06.528Z,12.10
2019-05-17T00:51:36.702Z,12.20
2019-05-17T00:54:06.636Z,12.20
2019-05-17T00:56:34.200Z,12.20
2019-05-17T00:59:02.404Z,12.20
2019-05-17T01:01:30.972Z,12.10
2019-05-17T01:03:58.858Z,12.10
2019-05-17T01:06:27.572Z,12.10
2019-05-17T01:09:01.935Z,12.10
2019-05-17T01:11:27.072Z,12.10
2019-05-17T01:13:56.494Z,12.10
2019-05-17T01:16:27.107Z,12.10
2019-05-17T01:18:57.178Z,12.10
2019-05-17T01:21:26.305Z,12.00
2019-05-17T01:23:56.226Z,12.00
2019-05-17T01:26:26.568Z,12.00
2019-05-17T01:28:53.860Z,12.00
2019-05-17T01:31:21.758Z,12.00
2019-05-17T01:33:49.642Z,12.00
2019-05-17T01:36:17.528Z,12.00
2019-05-17T01:38:46.902Z,12.00
2019-05-17T01:41:17.173Z,12.00
2019-05-17T01:43:47.286Z,11.90
2019-05-17T01:46:17.030Z,11.90
2019-05-17T01:48:46.956Z,11.90
2019-05-17T01:51:16.889Z,11.90
2019-05-17T01:53:46.942Z,11.90
2019-05-17T01:56:16.949Z,11.80
2019-05-17T01:58:46.997Z,11.80
2019-05-17T02:01:16.955Z,11.80
2019-05-17T02:03:46.777Z,11.80
2019-05-17T02:06:16.398Z,11.80
2019-05-17T02:08:44.374Z,11.80
2019-05-17T02:11:12.231Z,11.80
2019-05-17T02:13:40.445Z,11.80
2019-05-17T02:16:08.262Z,11.80
2019-05-17T02:18:37.194Z,11.80
2019-05-17T02:21:06.504Z,11.70
2019-05-17T02:23:36.957Z,11.70
2019-05-17T02:26:06.628Z,11.70
2019-05-17T02:28:35.139Z,11.70
2019-05-17T02:31:03.652Z,11.70
2019-05-17T02:33:33.329Z,11.70
2019-05-17T02:36:02.732Z,11.70
2019-05-17T02:38:33.311Z,11.60
2019-05-17T02:41:03.226Z,11.50
2019-05-17T02:43:33.557Z,11.40
2019-05-17T02:46:03.464Z,11.30
2019-05-17T02:48:33.406Z,11.20
2019-05-17T02:51:03.131Z,11.20
2019-05-17T02:53:29.651Z,11.20
2019-05-17T02:55:57.946Z,11.20
2019-05-17T02:58:25.850Z,11.10
2019-05-17T03:00:53.856Z,11.20
2019-05-17T03:03:23.693Z,11.20
2019-05-17T03:05:53.592Z,11.20
2019-05-17T03:08:23.435Z,11.20
2019-05-17T03:10:53.497Z,11.20
2019-05-17T03:13:23.399Z,11.20
2019-05-17T03:15:52.756Z,11.10
2019-05-17T03:18:22.884Z,11.10
2019-05-17T03:20:52.523Z,11.10
2019-05-17T03:23:23.202Z,11.10
2019-05-17T03:25:52.516Z,11.00
2019-05-17T03:28:23.651Z,11.00
2019-05-17T03:30:55.660Z,11.00
2019-05-17T03:33:25.858Z,11.00
2019-05-17T03:35:55.978Z,10.90
2019-05-17T03:38:22.790Z,10.80
2019-05-17T03:41:17.853Z,10.80
2019-05-17T03:43:22.628Z,10.80
2019-05-17T03:45:53.325Z,10.70
2019-05-17T03:48:22.211Z,10.80
2019-05-17T03:50:53.155Z,10.80
2019-05-17T03:53:22.850Z,10.80
2019-05-17T03:55:53.759Z,10.70
2019-05-17T03:58:23.278Z,10.70
2019-05-17T04:00:53.552Z,10.80
2019-05-17T04:03:22.908Z,10.80
2019-05-17T04:05:52.660Z,10.80
2019-05-17T04:08:22.811Z,10.90
2019-05-17T04:10:52.721Z,10.90
2019-05-17T04:13:19.489Z,10.90
2019-05-17T04:15:47.387Z,10.90
2019-05-17T04:18:15.879Z,10.90
2019-05-17T04:20:43.771Z,10.90
2019-05-17T04:23:12.723Z,10.90
2019-05-17T04:25:43.619Z,10.80
2019-05-17T04:28:13.640Z,10.90
2019-05-17T04:30:43.274Z,10.80
2019-05-17T04:33:14.389Z,10.80
2019-05-17T04:35:43.183Z,10.60
2019-05-17T04:38:12.801Z,10.60
2019-05-17T04:40:43.216Z,10.50
2019-05-17T04:43:13.635Z,10.40
2019-05-17T04:45:42.598Z,10.30
2019-05-17T04:48:13.230Z,10.20
2019-05-17T04:50:42.887Z,10.20
2019-05-17T04:53:13.378Z,10.20
2019-05-17T04:55:43.166Z,10.20
2019-05-17T04:58:13.756Z,10.20
2019-05-17T05:00:43.017Z,10.20
2019-05-17T05:03:12.761Z,10.20
2019-05-17T05:05:42.812Z,10.20
2019-05-17T05:08:13.061Z,10.10
2019-05-17T05:10:42.738Z,10.20
2019-05-17T05:13:13.307Z,10.20
2019-05-17T05:15:44.119Z,10.20
2019-05-17T05:18:13.325Z,10.20
2019-05-17T05:20:43.473Z,10.30
2019-05-17T05:23:12.968Z,10.30
2019-05-17T05:25:42.988Z,10.30
2019-05-17T05:28:14.714Z,10.30
2019-05-17T05:30:42.630Z,10.30
2019-05-17T05:33:12.986Z,10.40
2019-05-17T05:35:42.498Z,10.40
2019-05-17T05:38:13.097Z,10.40
2019-05-17T05:40:41.416Z,10.50
2019-05-17T05:43:11.747Z,10.50
2019-05-17T05:45:41.696Z,10.50
2019-05-17T05:48:13.844Z,10.50
2019-05-17T05:50:43.236Z,10.60
2019-05-17T05:53:12.864Z,10.70
2019-05-17T05:55:42.795Z,10.70
2019-05-17T05:58:12.074Z,10.80
2019-05-17T06:00:42.618Z,10.70
2019-05-17T06:03:13.933Z,10.80
2019-05-17T06:05:42.507Z,10.90
2019-05-17T06:08:12.287Z,10.90
2019-05-17T06:10:42.563Z,11.00
2019-05-17T06:13:12.735Z,11.10
2019-05-17T06:15:43.042Z,11.10
2019-05-17T06:18:12.179Z,11.10
2019-05-17T06:20:41.733Z,11.10
2019-05-17T06:23:12.318Z,11.00
2019-05-17T06:25:43.113Z,11.10
2019-05-17T06:28:11.457Z,11.10
2019-05-17T06:30:43.116Z,11.20
2019-05-17T06:33:11.991Z,11.10
2019-05-17T06:35:42.307Z,11.20
2019-05-17T06:38:12.137Z,11.10
2019-05-17T06:40:41.937Z,11.10
2019-05-17T06:43:13.159Z,11.00
2019-05-17T06:45:41.948Z,10.90
2019-05-17T06:48:11.770Z,10.90
2019-05-17T06:50:42.564Z,11.00
2019-05-17T06:53:12.355Z,10.90
2019-05-17T06:55:42.420Z,10.90
2019-05-17T06:58:12.290Z,11.00
2019-05-17T07:00:40.773Z,10.90
2019-05-17T07:03:09.576Z,10.90
2019-05-17T07:05:40.508Z,10.90
2019-05-17T07:08:11.226Z,10.90
2019-05-17T07:10:39.960Z,10.90
2019-05-17T07:13:10.619Z,10.90
2019-05-17T07:15:46.763Z,11.00
2019-05-17T07:18:10.312Z,11.00
2019-05-17T07:20:39.475Z,11.10
2019-05-17T07:23:10.477Z,11.10
2019-05-17T07:25:39.667Z,11.00
2019-05-17T07:28:10.153Z,11.00
2019-05-17T07:30:40.068Z,11.00
2019-05-17T07:33:09.806Z,11.10
2019-05-17T07:35:39.738Z,11.20
2019-05-17T07:38:10.300Z,11.20
2019-05-17T07:40:39.927Z,11.20
2019-05-17T07:43:13.933Z,11.30
2019-05-17T07:45:40.158Z,11.30
2019-05-17T07:48:09.575Z,11.40
2019-05-17T07:50:39.585Z,11.40
2019-05-17T07:53:09.966Z,11.50
2019-05-17T07:55:37.064Z,11.50
2019-05-17T07:58:05.397Z,11.70
2019-05-17T08:00:34.187Z,11.70
2019-05-17T08:03:03.369Z,11.70
2019-05-17T08:05:31.411Z,11.70
2019-05-17T08:08:00.155Z,11.80
2019-05-17T08:10:29.798Z,11.90
2019-05-17T08:12:59.901Z,11.90
2019-05-17T08:15:30.309Z,11.90
2019-05-17T08:17:59.401Z,12.00
2019-05-17T08:20:27.327Z,11.90
2019-05-17T08:22:55.227Z,11.90
2019-05-17T08:25:23.077Z,11.90
2019-05-17T08:27:51.290Z,11.90
2019-05-17T08:30:20.642Z,11.80
2019-05-17T08:32:50.629Z,11.80
2019-05-17T08:35:20.162Z,11.90
2019-05-17T08:37:49.893Z,11.80
2019-05-17T08:40:20.048Z,12.00
2019-05-17T08:42:49.864Z,12.00
2019-05-17T08:45:20.669Z,11.80
2019-05-17T08:47:50.026Z,11.70
2019-05-17T08:50:20.073Z,11.80
2019-05-17T08:52:49.514Z,11.80
2019-05-17T08:55:17.465Z,11.80
2019-05-17T08:57:45.339Z,11.80
2019-05-17T09:00:13.567Z,11.80
2019-05-17T09:02:41.508Z,12.00
2019-05-17T09:05:09.935Z,12.10
2019-05-17T09:07:40.304Z,12.20
2019-05-17T09:10:09.979Z,12.10
2019-05-17T09:12:40.550Z,12.00
2019-05-17T09:15:09.815Z,12.10
2019-05-17T09:17:39.690Z,12.20
2019-05-17T09:20:10.686Z,12.30
2019-05-17T09:22:39.619Z,12.60
2019-05-17T09:25:13.623Z,12.50
2019-05-17T09:27:39.699Z,12.70
2019-05-17T09:30:10.799Z,12.90
2019-05-17T09:32:40.466Z,12.80
2019-05-17T09:35:10.069Z,13.10
2019-05-17T09:37:41.020Z,13.50
2019-05-17T09:40:09.558Z,13.70
2019-05-17T09:42:40.772Z,13.80
2019-05-17T09:45:09.615Z,13.60
2019-05-17T09:47:39.734Z,13.40
2019-05-17T09:50:10.006Z,13.00
2019-05-17T09:52:40.259Z,12.80
2019-05-17T09:55:09.864Z,12.50
2019-05-17T09:57:40.496Z,12.40
2019-05-17T10:00:09.908Z,12.40
2019-05-17T10:02:40.187Z,12.30
2019-05-17T10:05:10.608Z,12.50
2019-05-17T10:07:40.214Z,12.80
2019-05-17T10:10:10.383Z,13.10
2019-05-17T10:12:40.460Z,13.50
2019-05-17T10:15:10.014Z,13.90
2019-05-17T10:17:38.590Z,14.00
2019-05-17T10:20:07.334Z,14.20
2019-05-17T10:22:35.226Z,14.20
2019-05-17T10:25:03.882Z,13.80
2019-05-17T10:27:32.110Z,13.80
2019-05-17T10:30:00.365Z,13.70
2019-05-17T10:32:33.570Z,13.70
2019-05-17T10:35:01.204Z,13.60
2019-05-17T10:37:30.315Z,13.50
2019-05-17T10:42:39.601Z,13.10
2019-05-17T10:45:10.582Z,13.00
2019-05-17T10:47:39.668Z,13.10
2019-05-17T10:50:10.278Z,13.60
2019-05-17T10:52:40.512Z,14.20
2019-05-17T10:55:07.610Z,14.50
2019-05-17T11:00:45.148Z,15.30
2019-05-17T11:03:12.766Z,14.70
2019-05-17T11:05:40.527Z,14.50
2019-05-17T11:08:10.318Z,14.20
2019-05-17T11:10:39.340Z,13.90
2019-05-17T11:13:07.051Z,13.90
2019-05-17T11:15:34.530Z,14.10
2019-05-17T11:18:02.410Z,14.10
2019-05-17T11:20:30.242Z,14.10
2019-05-17T11:22:57.783Z,14.00
2019-05-17T11:25:25.585Z,14.00
2019-05-17T11:27:53.508Z,14.30
2019-05-17T11:30:21.420Z,14.30
2019-05-17T11:32:49.176Z,14.10
2019-05-17T11:35:16.855Z,14.20
2019-05-17T11:37:44.538Z,14.30
2019-05-17T11:40:12.716Z,14.50
2019-05-17T11:42:40.310Z,14.50
2019-05-17T11:45:08.449Z,15.00
2019-05-17T11:50:14.974Z,15.40
2019-05-17T11:52:42.478Z,15.20
2019-05-17T11:55:10.140Z,15.20
2019-05-17T11:57:37.737Z,15.70
2019-05-17T12:00:05.647Z,16.10
2019-05-17T12:02:33.525Z,16.50
2019-05-17T12:05:01.119Z,16.40
2019-05-17T12:07:28.744Z,16.60
2019-05-17T12:09:56.863Z,16.20
2019-05-17T12:12:24.449Z,16.60
2019-05-17T12:14:52.307Z,16.50
2019-05-17T12:17:20.217Z,16.00
2019-05-17T12:19:47.766Z,15.80
2019-05-17T12:22:15.364Z,15.60
2019-05-17T12:24:42.995Z,15.30
2019-05-17T12:27:11.575Z,14.90
2019-05-17T12:29:39.172Z,14.70
2019-05-17T12:32:06.775Z,14.90
2019-05-17T12:34:34.662Z,15.20
2019-05-17T12:37:02.536Z,15.40
2019-05-17T12:39:30.145Z,15.50
2019-05-17T12:41:57.861Z,15.60
2019-05-17T12:44:25.544Z,15.00
2019-05-17T12:46:53.144Z,14.90
2019-05-17T12:49:20.587Z,15.30
2019-05-17T12:51:48.220Z,15.80
2019-05-17T12:54:15.775Z,15.60
2019-05-17T12:56:43.303Z,15.00
2019-05-17T13:02:00.237Z,14.90
2019-05-17T13:04:27.892Z,14.90
2019-05-17T13:06:55.515Z,14.90
2019-05-17T13:09:23.067Z,14.90
2019-05-17T13:11:52.698Z,14.90
2019-05-17T13:14:20.255Z,14.90
2019-05-17T13:16:47.927Z,14.70
2019-05-17T13:19:16.790Z,14.60
2019-05-17T13:21:44.702Z,14.40
2019-05-17T13:24:12.313Z,14.70
2019-05-17T13:26:39.892Z,14.80
2019-05-17T13:29:07.664Z,14.70
2019-05-17T13:31:35.503Z,14.90
2019-05-17T13:34:03.116Z,14.80
2019-05-17T13:36:30.719Z,14.80
2019-05-17T13:38:58.896Z,14.60
2019-05-17T13:41:26.501Z,14.40
2019-05-17T13:43:54.131Z,14.50
2019-05-17T13:46:32.591Z,14.60
2019-05-17T13:48:51.914Z,14.50
2019-05-17T13:51:19.528Z,14.40
2019-05-17T13:53:47.421Z,14.50
2019-05-17T13:56:15.108Z,14.50
2019-05-17T13:58:42.929Z,14.70
2019-05-17T14:01:11.816Z,14.70
2019-05-17T14:03:39.697Z,14.80
2019-05-17T14:06:07.374Z,14.70
2019-05-17T14:08:35.233Z,14.80
2019-05-17T14:11:03.411Z,14.90
2019-05-17T14:16:16.231Z,14.90
2019-05-17T14:18:44.166Z,15.00
2019-05-17T14:21:12.061Z,15.10
2019-05-17T14:23:39.643Z,15.10
2019-05-17T14:26:07.275Z,15.00
2019-05-17T14:28:35.694Z,15.00
2019-05-17T14:31:03.855Z,15.10
2019-05-17T14:33:31.482Z,15.10
2019-05-17T14:35:59.118Z,15.30
2019-05-17T14:38:26.979Z,15.30
2019-05-17T14:41:09.897Z,15.30
2019-05-17T14:43:23.997Z,15.40
2019-05-17T14:45:51.619Z,15.50
2019-05-17T14:48:38.992Z,15.60
2019-05-17T14:51:06.636Z,15.70
2019-05-17T14:53:34.550Z,15.70
2019-05-17T14:56:02.701Z,15.60
2019-05-17T14:58:30.348Z,15.70
2019-05-17T15:00:57.944Z,15.80
2019-05-17T15:03:25.935Z,15.90
2019-05-17T15:05:53.526Z,15.80
2019-05-17T15:08:21.158Z,15.80
2019-05-17T15:10:48.748Z,15.80
2019-05-17T15:13:16.394Z,15.90
2019-05-17T15:15:44.005Z,15.90
2019-05-17T15:18:11.655Z,15.80
2019-05-17T15:20:39.220Z,15.50
2019-05-17T15:23:07.066Z,15.40
2019-05-17T15:25:34.949Z,15.40
2019-05-17T15:28:02.771Z,15.40
2019-05-17T15:30:30.420Z,15.20
2019-05-17T15:32:58.573Z,15.10
2019-05-17T15:35:26.061Z,15.00
2019-05-17T15:37:53.697Z,15.00
2019-05-17T15:40:21.297Z,14.80
2019-05-17T15:42:48.934Z,14.50
2019-05-17T15:45:16.953Z,14.50
2019-05-17T15:47:44.524Z,14.60
2019-05-17T15:50:12.303Z,14.60
2019-05-17T15:55:22.593Z,14.50
2019-05-17T15:57:50.561Z,14.40
2019-05-17T16:00:18.481Z,14.40
2019-05-17T16:02:46.120Z,14.30
2019-05-17T16:05:13.955Z,14.30
2019-05-17T16:07:41.601Z,14.50
2019-05-17T16:10:10.025Z,14.50
2019-05-17T16:12:37.923Z,14.50
2019-05-17T16:15:05.782Z,14.40
2019-05-17T16:17:33.690Z,14.40
2019-05-17T16:20:01.364Z,14.60
2019-05-17T16:22:28.986Z,14.80
2019-05-17T16:24:56.689Z,14.80
2019-05-17T16:27:24.349Z,14.80
2019-05-17T16:29:52.230Z,14.70
2019-05-17T16:32:23.800Z,14.80
2019-05-17T16:34:51.431Z,14.80
2019-05-17T16:37:19.509Z,14.80
2019-05-17T16:40:24.609Z,14.90
2019-05-17T16:45:44.673Z,15.00
2019-05-17T16:48:13.087Z,15.20
2019-05-17T16:50:40.733Z,15.20
2019-05-17T16:53:08.361Z,15.10
2019-05-17T16:55:35.975Z,15.10
2019-05-17T16:58:03.805Z,15.20
2019-05-17T17:00:33.855Z,15.10
2019-05-17T17:03:01.714Z,15.20
2019-05-17T17:05:29.595Z,15.20
2019-05-17T17:07:57.233Z,15.10
2019-05-17T17:10:25.365Z,15.10
2019-05-17T17:12:52.973Z,15.00
2019-05-17T17:15:21.594Z,14.90
2019-05-17T17:17:49.229Z,14.80
2019-05-17T17:20:17.629Z,14.60
2019-05-17T17:22:46.269Z,14.50
2019-05-17T17:25:14.224Z,14.60
2019-05-17T17:27:41.852Z,14.50
2019-05-17T17:30:09.913Z,14.50
2019-05-17T17:32:37.500Z,14.40
2019-05-17T17:35:05.787Z,14.30
2019-05-17T17:37:33.985Z,14.30
2019-05-17T17:40:01.701Z,14.30
2019-05-17T17:42:29.456Z,14.30
2019-05-17T17:44:57.588Z,14.20
2019-05-17T17:47:25.209Z,14.30
2019-05-17T17:49:54.431Z,14.20
2019-05-17T17:52:22.609Z,14.20
2019-05-17T17:57:46.327Z,14.10
2019-05-17T18:00:14.504Z,14.00
2019-05-17T18:02:42.195Z,14.00
2019-05-17T18:05:10.219Z,14.00
2019-05-17T18:07:38.896Z,14.00
2019-05-17T18:10:08.003Z,13.90
2019-05-17T18:12:35.715Z,14.00
2019-05-17T18:15:06.520Z,14.00
2019-05-17T18:17:39.152Z,13.90
2019-05-17T18:20:04.022Z,13.90
2019-05-17T18:22:31.673Z,13.90
2019-05-17T18:24:59.407Z,13.90
2019-05-17T18:27:27.034Z,13.80
2019-05-17T18:29:54.729Z,13.80
2019-05-17T18:32:22.696Z,13.80
2019-05-17T18:34:50.640Z,13.80
2019-05-17T18:37:18.572Z,13.70
2019-05-17T18:39:46.322Z,13.70
2019-05-17T18:42:13.901Z,13.70
2019-05-17T18:44:41.514Z,13.70
2019-05-17T18:47:11.092Z,13.60
2019-05-17T18:49:38.686Z,13.60
2019-05-17T18:52:06.283Z,13.50
2019-05-17T18:54:34.916Z,13.30
2019-05-17T18:57:02.785Z,13.30
2019-05-17T18:59:30.708Z,13.10
2019-05-17T19:01:58.298Z,12.90
2019-05-17T19:04:25.906Z,12.70
2019-05-17T19:06:53.495Z,12.60
2019-05-17T19:09:21.123Z,12.40
2019-05-17T19:11:48.772Z,12.20
2019-05-17T19:14:16.380Z,12.00
2019-05-17T19:16:44.174Z,11.80
2019-05-17T19:19:11.776Z,11.70
2019-05-17T19:21:39.412Z,11.60
2019-05-17T19:24:06.986Z,11.60
2019-05-17T19:26:35.902Z,11.70
2019-05-17T19:29:03.646Z,11.60
2019-05-17T19:31:31.217Z,11.40
2019-05-17T19:33:58.844Z,11.20
2019-05-17T19:36:26.735Z,11.10
2019-05-17T19:38:54.349Z,11.10
2019-05-17T19:41:25.465Z,11.10
2019-05-17T19:46:56.092Z,11.00
2019-05-17T19:49:24.030Z,10.90
2019-05-17T19:51:51.935Z,10.80
2019-05-17T19:54:19.619Z,10.60
2019-05-17T19:56:47.312Z,10.40
2019-05-17T19:59:14.996Z,10.10
2019-05-17T20:01:42.622Z,9.80
2019-05-17T20:04:10.311Z,9.60
2019-05-17T20:06:38.250Z,9.50
2019-05-17T20:09:06.407Z,9.50
2019-05-17T20:11:34.836Z,9.40
2019-05-17T20:14:02.507Z,9.30
2019-05-17T20:16:30.143Z,9.10
2019-05-17T20:18:58.396Z,9.10
2019-05-17T20:21:26.373Z,9.10
2019-05-17T20:23:55.379Z,9.20
2019-05-17T20:26:23.073Z,9.20
2019-05-17T20:28:50.675Z,9.20
2019-05-17T20:31:18.358Z,9.10
2019-05-17T20:33:45.971Z,9.10
2019-05-17T20:36:13.604Z,9.10
2019-05-17T20:38:41.217Z,9.10
2019-05-17T20:41:08.868Z,9.10
2019-05-17T20:43:36.545Z,9.00
2019-05-17T20:46:04.507Z,9.00
2019-05-17T20:48:32.173Z,8.90
2019-05-17T20:50:59.831Z,8.80
2019-05-17T20:53:27.541Z,8.80
2019-05-17T20:55:55.245Z,8.90
2019-05-17T20:58:22.856Z,8.80
2019-05-17T21:00:50.794Z,8.70
2019-05-17T21:03:18.389Z,8.50
2019-05-17T21:05:46.106Z,8.50
2019-05-17T21:08:14.243Z,8.50
2019-05-17T21:10:42.064Z,8.50
2019-05-17T21:13:09.709Z,8.60
2019-05-17T21:15:47.398Z,8.60
2019-05-17T21:18:06.721Z,8.60
2019-05-17T21:20:34.890Z,8.60
2019-05-17T21:23:02.547Z,8.60
2019-05-17T21:28:24.047Z,8.60
2019-05-17T21:30:58.399Z,8.50
2019-05-17T21:33:26.221Z,8.50
2019-05-17T21:38:38.815Z,8.50
2019-05-17T21:41:06.498Z,8.50
2019-05-17T21:43:34.136Z,8.50
2019-05-17T21:46:03.982Z,8.50
2019-05-17T21:48:31.479Z,8.30
2019-05-17T21:50:59.139Z,8.30
2019-05-17T21:53:26.828Z,8.30
2019-05-17T21:55:54.489Z,8.30
2019-05-17T21:58:22.121Z,8.60
2019-05-17T22:01:07.419Z,8.80
2019-05-17T22:03:36.053Z,8.90
2019-05-17T22:06:03.998Z,9.00
2019-05-17T22:08:31.874Z,9.00
2019-05-17T22:10:59.784Z,9.10
2019-05-17T22:13:27.424Z,9.10
2019-05-17T22:15:55.347Z,9.00
2019-05-17T22:18:23.002Z,9.10
2019-05-17T22:20:50.642Z,9.10
2019-05-17T22:23:25.464Z,9.10
2019-05-17T22:25:53.081Z,9.20
2019-05-17T22:28:20.694Z,9.20
2019-05-17T22:30:48.328Z,9.20
2019-05-17T22:33:17.197Z,9.10
2019-05-17T22:35:45.081Z,9.00
2019-05-17T22:38:12.686Z,8.80
2019-05-17T22:40:40.281Z,8.70
2019-05-17T22:43:07.871Z,8.70
2019-05-17T22:45:36.003Z,8.50
2019-05-17T22:48:04.614Z,8.40
2019-05-17T22:50:32.218Z,8.30
2019-05-17T22:52:59.817Z,8.30
2019-05-17T22:55:27.302Z,8.30
2019-05-17T22:57:54.906Z,8.30
2019-05-17T23:00:22.800Z,8.30
2019-05-17T23:02:50.429Z,8.30
2019-05-17T23:05:25.550Z,8.30
2019-05-17T23:07:47.421Z,8.20
2019-05-17T23:10:14.981Z,8.30
2019-05-17T23:15:27.293Z,8.40
2019-05-17T23:17:54.896Z,8.40
2019-05-17T23:20:22.494Z,8.30
2019-05-17T23:22:50.108Z,8.20
2019-05-17T23:25:17.716Z,8.10
2019-05-17T23:27:45.330Z,7.90
2019-05-17T23:30:12.956Z,7.80
2019-05-17T23:32:40.514Z,7.60
2019-05-17T23:35:08.059Z,7.50
2019-05-17T23:37:35.902Z,7.40
2019-05-17T23:40:03.464Z,7.60
2019-05-17T23:42:31.028Z,7.70
2019-05-17T23:44:58.962Z,7.60
2019-05-17T23:47:27.119Z,7.50
2019-05-17T23:49:54.742Z,7.40
2019-05-17T23:52:22.901Z,7.30
2019-05-17T23:54:50.518Z,7.40
2019-05-17T23:57:18.250Z,7.40
2019-05-17T23:59:46.152Z,7.50
